Time;durP1;ratioP1;P1;durP2;ratioP2;P2;SDS_P1;SDS_P2;PMS_P1;PMS_P2;Temp;Humidity;BMP_temperature;BMP_pressure;BME280_temperature;BME280_humidity;BME280_pressure;Samples;Min_cycle;Max_cycle;Signal;HPM_P1;HPM_P2
2021/04/20 00:01:36;;;;;;;4.20;3.63;;;11.00;99.90;;;;;;5033197;28;20205;-76
2021/04/20 00:04:03;;;;;;;5.25;3.60;;;11.00;99.90;;;;;;5036851;28;20160;-75
2021/04/20 00:06:29;;;;;;;6.95;4.18;;;11.10;99.90;;;;;;5036159;28;20694;-76
2021/04/20 00:08:54;;;;;;;10.15;5.13;;;11.00;99.90;;;;;;5039247;28;20156;-75
2021/04/20 00:11:20;;;;;;;6.45;4.90;;;10.90;99.90;;;;;;5051697;28;20187;-78
2021/04/20 00:13:46;;;;;;;6.85;3.92;;;10.70;99.90;;;;;;5055216;28;20164;-76
2021/04/20 00:16:11;;;;;;;2.58;2.47;;;10.70;99.90;;;;;;5055504;28;20207;-74
2021/04/20 00:18:37;;;;;;;7.45;5.10;;;10.80;99.90;;;;;;5051566;28;20210;-76
2021/04/20 00:21:02;;;;;;;6.68;6.03;;;10.80;99.90;;;;;;5053142;28;20199;-77
2021/04/20 00:23:28;;;;;;;5.35;3.67;;;10.80;99.90;;;;;;5052501;28;20152;-76
2021/04/20 00:25:53;;;;;;;7.40;3.92;;;10.80;99.90;;;;;;5042476;28;20253;-76
2021/04/20 00:28:24;;;;;;;13.07;4.05;;;10.60;99.90;;;;;;5037205;28;20195;-76
2021/04/20 00:30:50;;;;;;;6.88;5.43;;;10.50;99.90;;;;;;5037617;28;20266;-76
2021/04/20 00:33:15;;;;;;;6.75;6.07;;;10.40;99.90;;;;;;5037167;28;20278;-76
2021/04/20 00:35:41;;;;;;;3.95;3.60;;;10.50;99.90;;;;;;5036499;28;20172;-77
2021/04/20 00:38:06;;;;;;;3.75;3.45;;;10.40;99.90;;;;;;5036929;28;20164;-76
2021/04/20 00:40:32;;;;;;;7.68;4.65;;;10.30;99.90;;;;;;5035551;28;20264;-76
2021/04/20 00:42:58;;;;;;;15.73;5.35;;;10.30;99.90;;;;;;5036650;28;20168;-76
2021/04/20 00:45:31;;;;;;;4.00;3.70;;;10.20;99.90;;;;;;5036713;28;20172;-76
2021/04/20 00:47:57;;;;;;;3.30;2.88;;;10.30;99.90;;;;;;5036798;28;20212;-75
2021/04/20 00:50:26;;;;;;;5.75;3.20;;;10.30;99.90;;;;;;5036854;28;20195;-79
2021/04/20 00:52:52;;;;;;;3.85;3.63;;;10.40;99.90;;;;;;5051701;28;20270;-76
2021/04/20 00:55:19;;;;;;;19.83;5.88;;;10.20;99.90;;;;;;5036633;28;20647;-77
2021/04/20 00:57:45;;;;;;;9.82;3.38;;;10.10;99.90;;;;;;5036568;28;20245;-76
2021/04/20 01:00:19;;;;;;;5.80;3.85;;;10.00;99.90;;;;;;5034968;28;20223;-75
2021/04/20 01:02:45;;;;;;;5.18;4.63;;;10.10;99.90;;;;;;5036281;28;20594;-75
2021/04/20 01:05:14;;;;;;;5.00;4.60;;;9.90;99.90;;;;;;5036522;28;20248;-78
2021/04/20 01:07:41;;;;;;;6.00;3.33;;;9.90;99.90;;;;;;5036294;28;20188;-77
2021/04/20 01:10:07;;;;;;;13.65;5.60;;;10.10;99.90;;;;;;5036121;28;20552;-75
2021/04/20 01:12:35;;;;;;;9.70;4.35;;;10.00;99.90;;;;;;5036288;28;20167;-76
2021/04/20 01:15:01;;;;;;;6.05;5.32;;;9.90;99.90;;;;;;5036203;28;20630;-76
2021/04/20 01:17:27;;;;;;;10.85;6.30;;;9.70;99.90;;;;;;5036295;28;20238;-76
2021/04/20 01:19:59;;;;;;;8.23;5.10;;;9.70;99.90;;;;;;5035818;28;20172;-75
2021/04/20 01:22:28;;;;;;;18.88;6.93;;;9.70;99.90;;;;;;5035921;28;20255;-76
2021/04/20 01:24:53;;;;;;;6.47;4.25;;;9.80;99.90;;;;;;5035666;28;20647;-78
2021/04/20 01:27:19;;;;;;;10.07;4.10;;;9.80;99.90;;;;;;5036089;28;20234;-74
2021/04/20 01:29:45;;;;;;;22.92;5.63;;;9.80;99.90;;;;;;5036065;28;20179;-76
2021/04/20 01:32:11;;;;;;;3.35;3.08;;;9.90;99.90;;;;;;5035981;28;20247;-75
2021/04/20 01:34:39;;;;;;;11.77;4.18;;;10.00;99.90;;;;;;5035896;28;20167;-76
2021/04/20 01:37:05;;;;;;;9.82;5.72;;;10.00;99.90;;;;;;5035040;28;20183;-76
2021/04/20 01:39:31;;;;;;;2.70;2.40;;;10.20;99.90;;;;;;5035871;28;20526;-76
2021/04/20 01:41:57;;;;;;;28.60;4.00;;;10.20;99.90;;;;;;5035788;28;20208;-75
2021/04/20 01:44:23;;;;;;;7.45;5.20;;;10.00;99.90;;;;;;5035676;28;20611;-78
2021/04/20 01:46:48;;;;;;;9.32;6.05;;;9.80;99.90;;;;;;5035230;28;20184;-76
2021/04/20 01:49:14;;;;;;;5.18;4.72;;;9.80;99.90;;;;;;5034330;28;20226;-76
2021/04/20 01:51:40;;;;;;;7.97;4.20;;;9.90;99.90;;;;;;5035509;28;20719;-75
2021/04/20 01:54:06;;;;;;;6.65;5.72;;;10.00;99.90;;;;;;5035660;28;20192;-75
2021/04/20 01:56:32;;;;;;;11.90;6.32;;;9.90;99.90;;;;;;5035280;28;20613;-75
2021/04/20 01:58:59;;;;;;;4.85;4.47;;;10.00;99.90;;;;;;5035451;28;20176;-75
2021/04/20 02:01:26;;;;;;;4.22;3.83;;;9.90;99.90;;;;;;5034980;28;20270;-75
2021/04/20 02:03:53;;;;;;;12.02;5.85;;;9.80;99.90;;;;;;5035594;28;20156;-76
2021/04/20 02:06:21;;;;;;;8.48;6.32;;;9.80;99.90;;;;;;5035102;28;20188;-75
2021/04/20 02:08:48;;;;;;;16.73;6.40;;;9.90;99.90;;;;;;5035320;28;20218;-75
2021/04/20 02:11:16;;;;;;;9.77;6.18;;;9.90;99.90;;;;;;5035441;28;20164;-76
2021/04/20 02:13:42;;;;;;;5.40;4.80;;;9.80;99.90;;;;;;5034964;28;20282;-76
2021/04/20 02:16:09;;;;;;;9.88;4.72;;;9.70;99.90;;;;;;5034949;28;20705;-76
2021/04/20 02:18:40;;;;;;;8.02;4.38;;;9.70;99.90;;;;;;5035096;28;20623;-76
2021/04/20 02:21:06;;;;;;;8.68;7.47;;;9.60;99.90;;;;;;5034988;28;20553;-77
2021/04/20 02:23:31;;;;;;;9.80;5.85;;;9.50;99.90;;;;;;5050171;28;20171;-76
2021/04/20 02:26:06;;;;;;;7.82;5.13;;;9.50;99.90;;;;;;5034888;28;20187;-76
2021/04/20 02:28:33;;;;;;;8.32;5.40;;;9.60;99.90;;;;;;5034652;28;20209;-76
2021/04/20 02:31:04;;;;;;;7.15;5.43;;;9.60;99.90;;;;;;5035295;28;20246;-75
2021/04/20 02:33:30;;;;;;;5.72;5.32;;;9.70;99.90;;;;;;5033483;28;20182;-78
2021/04/20 02:35:57;;;;;;;15.32;5.25;;;9.70;99.90;;;;;;5034672;28;20195;-76
2021/04/20 02:38:24;;;;;;;5.68;4.85;;;9.70;99.90;;;;;;5034703;28;20255;-76
2021/04/20 02:40:57;;;;;;;10.18;5.82;;;9.60;99.90;;;;;;5034501;28;20206;-75
2021/04/20 02:43:23;;;;;;;3.60;3.35;;;9.60;99.90;;;;;;5034821;28;20180;-76
2021/04/20 02:45:52;;;;;;;10.50;3.45;;;9.60;99.90;;;;;;5034614;28;20294;-76
2021/04/20 02:48:18;;;;;;;8.52;5.47;;;9.50;99.90;;;;;;5034446;28;20176;-76
2021/04/20 02:50:45;;;;;;;9.77;7.05;;;9.50;99.90;;;;;;5034251;28;20247;-76
2021/04/20 02:53:15;;;;;;;28.27;7.95;;;9.40;99.90;;;;;;5034461;28;20614;-76
2021/04/20 02:55:41;;;;;;;6.53;5.93;;;9.20;99.90;;;;;;5033090;28;20599;-76
2021/04/20 02:58:18;;;;;;;8.07;4.00;;;9.20;99.90;;;;;;5034495;28;20250;-76
2021/04/20 03:00:53;;;;;;;5.45;4.65;;;9.20;99.90;;;;;;5033979;28;20229;-77
2021/04/20 03:03:20;;;;;;;3.97;3.67;;;9.20;99.90;;;;;;5034219;28;20590;-76
2021/04/20 03:05:46;;;;;;;18.30;4.88;;;9.30;99.90;;;;;;5034128;28;20631;-75
2021/04/20 03:08:13;;;;;;;6.57;4.03;;;9.50;99.90;;;;;;5033984;28;20247;-76
2021/04/20 03:10:41;;;;;;;4.80;4.32;;;9.60;99.90;;;;;;5034250;28;20689;-77
2021/04/20 03:13:07;;;;;;;11.75;4.65;;;9.50;99.90;;;;;;5033958;28;20168;-76
2021/04/20 03:15:34;;;;;;;4.57;4.13;;;9.40;99.90;;;;;;5033994;28;20178;-75
2021/04/20 03:17:59;;;;;;;15.93;6.05;;;9.20;99.90;;;;;;5033698;28;20172;-74
2021/04/20 03:20:25;;;;;;;6.93;4.63;;;9.30;99.90;;;;;;5033898;28;20526;-74
2021/04/20 03:22:51;;;;;;;6.50;3.50;;;9.30;99.90;;;;;;5033594;28;20659;-74
2021/04/20 03:25:23;;;;;;;9.02;5.68;;;9.10;99.90;;;;;;5033658;28;20156;-74
2021/04/20 03:27:53;;;;;;;5.88;3.25;;;9.10;99.90;;;;;;5033529;28;20191;-74
2021/04/20 03:30:22;;;;;;;16.92;4.32;;;9.20;99.90;;;;;;5034223;28;20195;-74
2021/04/20 03:33:18;;;;;;;2.75;2.53;;;9.10;99.90;;;;;;5033767;28;20280;-74
2021/04/20 03:36:16;;;;;;;8.82;7.10;;;9.30;99.90;;;;;;5033112;28;20206;-74
2021/04/20 03:39:14;;;;;;;5.03;4.53;;;9.40;99.90;;;;;;5033550;28;20695;-76
2021/04/20 03:41:57;;;;;;;5.47;4.93;;;9.40;99.90;;;;;;5031342;28;20306;-76
2021/04/20 03:44:34;;;;;;;15.80;3.35;;;9.00;99.90;;;;;;5033375;28;20152;-76
2021/04/20 03:47:03;;;;;;;3.92;3.38;;;8.90;99.90;;;;;;5033491;28;20218;-76
2021/04/20 03:49:41;;;;;;;12.65;4.53;;;8.80;99.90;;;;;;5033252;28;20179;-76
2021/04/20 03:52:15;;;;;;;6.88;4.45;;;8.80;99.90;;;;;;5033237;28;20164;-76
2021/04/20 03:54:43;;;;;;;7.72;5.38;;;8.80;99.90;;;;;;5033097;28;20209;-74
2021/04/20 03:57:11;;;;;;;12.00;5.18;;;9.00;99.90;;;;;;5033388;28;20203;-79
2021/04/20 03:59:37;;;;;;;9.40;6.50;;;9.20;99.90;;;;;;5032396;28;20265;-77
2021/04/20 04:02:04;;;;;;;5.43;3.22;;;9.00;99.90;;;;;;5032848;28;20729;-77
2021/04/20 04:04:30;;;;;;;5.03;4.63;;;8.90;99.90;;;;;;5033350;28;20251;-76
2021/04/20 04:06:57;;;;;;;7.13;3.28;;;9.00;99.90;;;;;;5033202;28;20694;-75
2021/04/20 04:09:23;;;;;;;6.00;3.80;;;9.10;99.90;;;;;;5033080;28;20246;-75
2021/04/20 04:12:02;;;;;;;3.75;3.17;;;9.30;99.90;;;;;;5032446;28;20243;-76
2021/04/20 04:14:40;;;;;;;7.57;5.32;;;9.30;99.90;;;;;;5033081;28;20209;-77
2021/04/20 04:17:08;;;;;;;5.60;4.38;;;9.30;99.90;;;;;;5047313;28;20203;-75
2021/04/20 04:19:51;;;;;;;7.82;5.10;;;9.40;99.90;;;;;;5047642;28;20172;-75
2021/04/20 04:22:25;;;;;;;11.82;6.63;;;9.00;99.90;;;;;;5032828;28;20234;-75
2021/04/20 04:24:55;;;;;;;14.90;4.68;;;8.80;99.90;;;;;;5032734;28;20525;-76
2021/04/20 04:27:23;;;;;;;9.02;5.45;;;8.70;99.90;;;;;;5032882;28;20701;-78
2021/04/20 04:29:51;;;;;;;6.03;3.90;;;8.70;99.90;;;;;;5032647;28;20628;-74
2021/04/20 04:32:20;;;;;;;20.08;5.00;;;8.70;99.90;;;;;;5032852;28;20701;-76
2021/04/20 04:34:49;;;;;;;8.60;3.40;;;8.80;99.90;;;;;;5032609;28;20218;-76
2021/04/20 04:37:16;;;;;;;5.90;5.25;;;8.70;99.90;;;;;;5032855;28;20192;-75
2021/04/20 04:39:45;;;;;;;4.57;3.33;;;8.70;99.90;;;;;;5032676;28;20176;-76
2021/04/20 04:42:12;;;;;;;10.18;4.07;;;8.70;99.90;;;;;;5047744;28;20602;-75
2021/04/20 04:44:38;;;;;;;13.93;5.72;;;8.90;99.90;;;;;;5032591;28;20263;-75
2021/04/20 04:47:06;;;;;;;9.07;4.15;;;9.00;99.90;;;;;;5032452;28;20187;-76
2021/04/20 04:49:32;;;;;;;6.93;4.78;;;9.10;99.90;;;;;;5032762;28;20221;-75
2021/04/20 04:51:59;;;;;;;13.82;7.18;;;8.80;99.90;;;;;;5032612;28;20156;-75
2021/04/20 04:54:26;;;;;;;4.35;4.00;;;8.80;99.90;;;;;;5032454;28;20633;-75
2021/04/20 04:56:53;;;;;;;9.65;6.38;;;8.70;99.90;;;;;;5032259;28;20195;-76
2021/04/20 04:59:20;;;;;;;7.13;5.25;;;8.80;99.90;;;;;;5032296;28;20212;-75
2021/04/20 05:01:47;;;;;;;5.88;4.10;;;8.70;99.90;;;;;;5032470;28;20208;-76
2021/04/20 05:04:13;;;;;;;14.85;5.05;;;8.80;99.90;;;;;;5032374;28;20176;-76
2021/04/20 05:06:47;;;;;;;4.78;4.38;;;9.00;99.90;;;;;;5032169;28;20769;-76
2021/04/20 05:09:16;;;;;;;7.45;4.95;;;9.00;99.90;;;;;;5032598;28;20218;-75
2021/04/20 05:11:44;;;;;;;12.23;4.80;;;9.10;99.90;;;;;;5032557;28;20168;-75
2021/04/20 05:14:10;;;;;;;4.55;3.05;;;9.10;99.90;;;;;;5035671;28;20225;-76
2021/04/20 05:16:36;;;;;;;10.75;3.65;;;9.20;99.90;;;;;;5035899;28;20239;-76
2021/04/20 05:19:11;;;;;;;7.80;4.22;;;9.30;99.90;;;;;;5036284;28;20159;-76
2021/04/20 05:21:40;;;;;;;4.30;4.00;;;9.50;99.90;;;;;;5035988;28;20207;-76
2021/04/20 05:24:07;;;;;;;5.50;4.95;;;9.60;99.90;;;;;;5035602;28;20171;-76
2021/04/20 05:26:33;;;;;;;5.22;4.35;;;9.30;99.90;;;;;;5035874;28;20234;-75
2021/04/20 05:29:03;;;;;;;4.85;3.78;;;9.30;99.90;;;;;;5035532;28;20480;-76
2021/04/20 05:31:29;;;;;;;7.78;5.50;;;9.40;99.90;;;;;;5035815;28;20692;-76
2021/04/20 05:33:56;;;;;;;7.28;5.57;;;9.50;99.90;;;;;;5035379;28;20156;-76
2021/04/20 05:36:22;;;;;;;4.25;3.88;;;9.60;99.90;;;;;;5035574;28;20725;-76
2021/04/20 05:38:52;;;;;;;4.63;4.28;;;9.70;99.90;;;;;;5035702;28;20172;-76
2021/04/20 05:41:25;;;;;;;5.85;3.88;;;9.60;99.90;;;;;;5035258;28;20206;-75
2021/04/20 05:43:53;;;;;;;9.35;5.80;;;9.50;99.90;;;;;;5035400;28;20160;-76
2021/04/20 05:46:20;;;;;;;6.85;3.47;;;9.70;99.90;;;;;;5035166;28;20192;-76
2021/04/20 05:48:47;;;;;;;9.00;4.65;;;9.70;99.90;;;;;;5035277;28;20175;-75
2021/04/20 05:51:14;;;;;;;5.63;4.13;;;9.80;99.90;;;;;;5035094;28;20186;-77
2021/04/20 05:53:39;;;;;;;8.10;4.22;;;9.80;99.90;;;;;;5035515;28;20152;-77
2021/04/20 05:56:06;;;;;;;7.03;5.13;;;10.00;99.90;;;;;;5035563;28;20200;-73
2021/04/20 05:58:33;;;;;;;6.25;4.43;;;10.30;99.90;;;;;;5035815;28;20260;-74
2021/04/20 06:01:03;;;;;;;7.75;5.15;;;10.40;99.90;;;;;;5035454;28;20230;-75
2021/04/20 06:03:29;;;;;;;6.88;6.28;;;10.50;99.90;;;;;;5038439;28;20187;-75
2021/04/20 06:06:01;;;;;;;8.02;5.78;;;10.60;99.90;;;;;;5052899;28;20210;-75
2021/04/20 06:08:28;;;;;;;4.18;3.63;;;10.80;99.90;;;;;;5052024;28;20566;-74
2021/04/20 06:10:55;;;;;;;12.80;5.38;;;10.90;99.90;;;;;;5069020;28;20168;-73
2021/04/20 06:13:21;;;;;;;26.05;8.15;;;11.00;99.90;;;;;;5051666;28;20164;-74
2021/04/20 06:15:47;;;;;;;47.70;8.10;;;11.20;99.90;;;;;;5053206;28;20175;-77
2021/04/20 06:18:12;;;;;;;6.10;5.07;;;11.20;99.90;;;;;;5049463;28;20187;-76
2021/04/20 06:20:38;;;;;;;5.35;4.75;;;11.20;99.90;;;;;;5035645;28;20238;-76
2021/04/20 06:23:05;;;;;;;9.18;5.45;;;11.40;99.90;;;;;;5050224;28;20310;-75
2021/04/20 06:25:32;;;;;;;47.58;7.05;;;11.40;99.90;;;;;;5035782;28;20167;-76
2021/04/20 06:27:58;;;;;;;56.97;11.02;;;11.50;99.90;;;;;;5034964;28;20190;-78
2021/04/20 06:30:24;;;;;;;53.20;10.35;;;11.30;99.90;;;;;;5035599;28;20255;-76
2021/04/20 06:32:50;;;;;;;8.85;6.45;;;11.40;99.90;;;;;;5033328;28;20257;-77
2021/04/20 06:35:22;;;;;;;18.13;6.90;;;11.80;99.90;;;;;;5035041;28;20573;-77
2021/04/20 06:37:50;;;;;;;5.00;4.55;;;12.10;99.90;;;;;;5034483;28;20379;-77
2021/04/20 06:40:30;;;;;;;7.93;5.63;;;12.30;99.90;;;;;;5034497;28;20212;-77
2021/04/20 06:42:59;;;;;;;11.75;5.03;;;12.50;99.90;;;;;;5034667;28;20180;-77
2021/04/20 06:45:55;;;;;;;12.52;5.40;;;12.60;99.90;;;;;;5034314;28;20176;-77
2021/04/20 06:48:35;;;;;;;9.48;6.78;;;12.70;99.90;;;;;;5034519;28;20762;-76
2021/04/20 06:51:04;;;;;;;24.08;7.60;;;12.60;99.90;;;;;;5034472;28;20164;-74
2021/04/20 06:53:37;;;;;;;18.08;5.22;;;12.60;99.90;;;;;;5034256;28;20469;-75
2021/04/20 06:56:21;;;;;;;6.57;5.82;;;12.60;99.90;;;;;;5034279;28;20210;-76
2021/04/20 06:59:02;;;;;;;9.05;5.57;;;12.60;99.90;;;;;;5034077;28;20167;-75
2021/04/20 07:01:40;;;;;;;5.95;4.55;;;12.50;99.90;;;;;;5034151;28;20234;-75
2021/04/20 07:04:26;;;;;;;6.00;4.43;;;12.60;99.90;;;;;;5033816;28;20627;-75
2021/04/20 07:06:55;;;;;;;10.25;6.45;;;12.70;99.90;;;;;;5034047;28;20183;-76
2021/04/20 07:09:24;;;;;;;10.48;7.22;;;12.40;99.90;;;;;;5033198;28;20167;-75
2021/04/20 07:11:53;;;;;;;4.25;3.67;;;12.30;99.90;;;;;;5018645;28;20536;-77
2021/04/20 07:14:49;;;;;;;4.25;3.90;;;12.50;99.90;;;;;;5032777;28;20184;-74
2021/04/20 07:17:18;;;;;;;15.10;5.38;;;12.70;99.90;;;;;;5024246;28;20215;-75
2021/04/20 07:19:49;;;;;;;11.25;5.38;;;12.90;99.90;;;;;;5032411;28;20164;-75
2021/04/20 07:22:36;;;;;;;6.43;3.97;;;13.00;99.90;;;;;;5019337;28;20672;-74
2021/04/20 07:25:09;;;;;;;13.63;3.92;;;13.30;99.90;;;;;;5013567;28;20659;-74
2021/04/20 07:27:52;;;;;;;14.25;4.57;;;13.20;99.90;;;;;;5013490;28;20667;-75
2021/04/20 07:30:48;;;;;;;12.60;6.10;;;13.00;99.90;;;;;;5013162;28;20203;-75
2021/04/20 07:33:52;;;;;;;10.10;7.60;;;13.30;99.90;;;;;;5012706;28;20663;-74
2021/04/20 07:36:33;;;;;;;7.10;4.55;;;13.50;99.90;;;;;;5012565;28;20721;-74
2021/04/20 07:39:19;;;;;;;14.68;5.60;;;13.60;99.90;;;;;;5012954;28;20171;-74
2021/04/20 07:42:04;;;;;;;6.88;5.13;;;13.70;99.90;;;;;;5032221;28;20239;-74
2021/04/20 07:44:38;;;;;;;8.80;5.35;;;13.50;99.90;;;;;;5032743;28;20517;-75
2021/04/20 07:47:09;;;;;;;4.80;4.50;;;13.70;99.90;;;;;;5032995;28;20636;-75
2021/04/20 07:49:51;;;;;;;13.52;5.97;;;13.70;99.90;;;;;;5032590;28;20317;-77
2021/04/20 07:52:31;;;;;;;10.50;5.45;;;13.60;99.90;;;;;;5032250;28;20176;-75
2021/04/20 07:55:14;;;;;;;4.05;3.75;;;13.60;99.90;;;;;;5047729;28;20197;-77
2021/04/20 07:57:48;;;;;;;16.33;7.88;;;13.90;99.90;;;;;;5032536;28;20227;-78
2021/04/20 08:00:24;;;;;;;16.40;6.25;;;14.20;99.90;;;;;;5031390;28;20212;-77
2021/04/20 08:03:03;;;;;;;7.63;4.25;;;13.70;99.90;;;;;;5031288;28;20224;-76
2021/04/20 08:05:39;;;;;;;6.00;4.47;;;13.60;99.90;;;;;;5047833;28;20619;-76
2021/04/20 08:08:29;;;;;;;7.95;4.70;;;13.70;99.90;;;;;;5032466;28;20171;-75
2021/04/20 08:11:01;;;;;;;9.35;5.75;;;13.90;99.90;;;;;;5032151;28;20187;-75
2021/04/20 08:13:48;;;;;;;8.40;5.07;;;13.80;99.90;;;;;;5031890;28;20160;-79
2021/04/20 08:16:29;;;;;;;12.02;5.40;;;13.80;99.90;;;;;;5030905;28;20195;-75
2021/04/20 08:19:10;;;;;;;23.63;5.35;;;14.20;99.90;;;;;;5032214;28;20172;-78
2021/04/20 08:21:43;;;;;;;5.63;4.50;;;14.60;99.90;;;;;;5032087;28;20199;-77
2021/04/20 08:24:26;;;;;;;5.85;5.28;;;14.80;99.90;;;;;;5032280;28;20164;-77
2021/04/20 08:26:56;;;;;;;4.82;4.10;;;14.70;99.90;;;;;;5032406;28;20192;-79
2021/04/20 08:29:27;;;;;;;5.80;5.22;;;14.50;99.90;;;;;;5032048;28;20211;-76
2021/04/20 08:32:06;;;;;;;8.25;6.45;;;14.60;99.90;;;;;;5032255;28;20624;-77
2021/04/20 08:34:32;;;;;;;10.65;6.55;;;14.70;99.90;;;;;;5033058;28;20152;-78
2021/04/20 08:37:00;;;;;;;11.88;6.10;;;14.80;99.90;;;;;;5032915;28;20194;-78
2021/04/20 08:39:58;;;;;;;13.30;5.30;;;15.00;99.90;;;;;;5048495;28;20176;-78
2021/04/20 08:42:50;;;;;;;21.58;6.05;;;15.30;99.90;;;;;;5032828;28;20214;-77
2021/04/20 08:45:41;;;;;;;12.35;7.10;;;15.20;99.90;;;;;;5032781;28;20167;-78
2021/04/20 08:48:50;;;;;;;12.23;6.53;;;15.40;99.90;;;;;;5036669;28;20197;-77
2021/04/20 08:51:30;;;;;;;4.32;3.13;;;15.60;99.90;;;;;;5036868;28;20167;-78
2021/04/20 08:54:31;;;;;;;6.78;5.18;;;15.70;99.90;;;;;;5036820;28;20298;-77
2021/04/20 08:57:16;;;;;;;12.40;4.22;;;15.90;99.90;;;;;;4983042;28;20240;-79
2021/04/20 09:00:08;;;;;;;10.48;4.80;;;15.80;99.90;;;;;;5036311;28;20729;-80
2021/04/20 09:02:57;;;;;;;10.20;5.78;;;15.70;99.90;;;;;;5051793;28;20648;-80
2021/04/20 09:05:40;;;;;;;11.95;4.53;;;15.70;99.90;;;;;;5027528;28;20274;-81
2021/04/20 09:08:28;;;;;;;7.65;3.78;;;15.90;99.90;;;;;;5037147;28;20178;-78
2021/04/20 09:11:20;;;;;;;10.77;4.72;;;16.20;99.90;;;;;;5036487;28;20163;-78
2021/04/20 09:13:58;;;;;;;4.75;4.13;;;16.50;99.90;;;;;;5036203;28;20640;-77
2021/04/20 09:16:46;;;;;;;5.30;3.65;;;16.50;99.90;;;;;;5036486;28;20563;-78
2021/04/20 09:19:35;;;;;;;4.65;3.97;;;16.40;99.90;;;;;;5036480;28;20174;-78
2021/04/20 09:22:20;;;;;;;32.63;4.97;;;16.30;99.90;;;;;;5026793;28;20226;-77
2021/04/20 09:25:04;;;;;;;4.05;3.75;;;16.20;99.90;;;;;;5036190;28;20651;-80
2021/04/20 09:27:43;;;;;;;3.60;3.30;;;16.20;99.90;;;;;;5036059;28;20667;-78
2021/04/20 09:30:14;;;;;;;16.10;4.72;;;16.50;99.90;;;;;;5036304;28;20627;-75
2021/04/20 09:32:56;;;;;;;4.18;3.75;;;16.40;99.90;;;;;;5035986;28;20175;-78
2021/04/20 09:35:24;;;;;;;6.07;3.17;;;16.60;99.90;;;;;;5036121;28;20175;-77
2021/04/20 09:37:52;;;;;;;7.55;4.78;;;16.80;99.90;;;;;;5035746;28;20184;-80
2021/04/20 09:40:21;;;;;;;6.35;4.45;;;16.90;99.90;;;;;;5035740;28;20156;-79
2021/04/20 09:42:52;;;;;;;13.45;5.03;;;16.70;99.90;;;;;;5035932;28;20203;-83
2021/04/20 09:45:24;;;;;;;4.70;3.53;;;17.10;99.90;;;;;;5034117;28;20168;-78
2021/04/20 09:48:26;;;;;;;4.60;2.85;;;17.10;99.90;;;;;;5035217;28;20574;-79
2021/04/20 09:51:08;;;;;;;35.42;6.30;;;17.20;99.90;;;;;;5051122;28;20164;-78
2021/04/20 09:53:54;;;;;;;4.70;3.95;;;17.40;99.90;;;;;;5035505;28;20168;-78
2021/04/20 09:56:29;;;;;;;11.57;3.30;;;17.80;99.90;;;;;;5035246;28;20190;-78
2021/04/20 09:58:54;;;;;;;5.53;3.17;;;18.20;99.90;;;;;;5049738;28;20171;-78
2021/04/20 10:01:35;;;;;;;20.15;6.18;;;18.30;99.90;;;;;;5050412;28;20578;-75
2021/04/20 10:04:09;;;;;;;5.05;3.88;;;18.40;99.90;;;;;;5035382;28;20148;-79
2021/04/20 10:06:50;;;;;;;9.77;4.15;;;18.70;99.90;;;;;;5035217;28;20191;-80
2021/04/20 10:09:56;;;;;;;5.25;4.15;;;19.20;99.90;;;;;;5035408;28;20167;-80
2021/04/20 10:13:02;;;;;;;2.75;2.38;;;19.20;99.90;;;;;;5035138;28;20168;-78
2021/04/20 10:15:46;;;;;;;6.85;3.83;;;19.00;99.90;;;;;;5035022;28;20191;-77
2021/04/20 10:18:22;;;;;;;4.65;3.40;;;19.50;99.90;;;;;;5035462;28;20166;-79
2021/04/20 10:21:14;;;;;;;5.13;4.15;;;19.30;99.90;;;;;;5034892;28;20191;-77
2021/04/20 10:23:59;;;;;;;10.35;5.15;;;18.90;99.90;;;;;;5033792;28;20156;-79
2021/04/20 10:26:46;;;;;;;5.57;3.58;;;18.60;99.90;;;;;;5035119;28;20202;-79
2021/04/20 10:30:00;;;;;;;8.90;4.07;;;18.70;99.90;;;;;;5050354;28;20523;-79
2021/04/20 10:32:30;;;;;;;12.70;4.28;;;18.50;99.90;;;;;;5029740;28;20191;-79
2021/04/20 10:34:57;;;;;;;8.55;5.03;;;18.40;99.90;;;;;;5034886;28;20190;-80
2021/04/20 10:37:34;;;;;;;6.30;4.25;;;18.20;99.90;;;;;;5033816;28;20180;-79
2021/04/20 10:40:05;;;;;;;4.13;3.13;;;17.50;99.90;;;;;;5049618;28;20183;-80
2021/04/20 10:42:32;;;;;;;8.15;5.43;;;17.50;99.90;;;;;;5033288;28;20214;-79
2021/04/20 10:44:58;;;;;;;14.80;5.57;;;17.60;99.90;;;;;;5033453;28;20206;-76
2021/04/20 10:47:28;;;;;;;6.72;5.03;;;17.70;99.90;;;;;;5034697;28;20180;-78
2021/04/20 10:49:58;;;;;;;5.97;4.97;;;17.80;99.90;;;;;;5034477;28;20631;-79
2021/04/20 10:52:29;;;;;;;8.45;4.57;;;17.70;99.90;;;;;;5034612;28;20170;-78
2021/04/20 10:55:00;;;;;;;11.30;3.78;;;17.70;99.90;;;;;;5034396;28;20693;-79
2021/04/20 10:57:29;;;;;;;6.13;3.33;;;17.50;99.90;;;;;;5032940;28;20236;-79
2021/04/20 10:59:57;;;;;;;8.25;4.75;;;17.30;99.90;;;;;;5032850;28;20239;-78
2021/04/20 11:02:27;;;;;;;6.82;3.83;;;17.40;99.90;;;;;;5034111;28;20663;-80
2021/04/20 11:04:54;;;;;;;4.22;3.80;;;17.30;99.90;;;;;;5033075;28;20167;-78
2021/04/20 11:07:43;;;;;;;5.78;4.45;;;17.00;99.90;;;;;;5034419;28;20192;-80
2021/04/20 11:10:11;;;;;;;6.60;2.55;;;17.00;99.90;;;;;;5025296;28;20192;-80
2021/04/20 11:12:45;;;;;;;5.22;3.30;;;16.90;99.90;;;;;;5033995;28;20174;-79
2021/04/20 11:15:31;;;;;;;9.25;2.58;;;16.70;99.90;;;;;;5034317;28;20574;-79
2021/04/20 11:17:57;;;;;;;10.77;4.53;;;17.00;99.90;;;;;;5033817;28;20262;-78
2021/04/20 11:20:38;;;;;;;20.77;8.57;;;17.40;99.90;;;;;;5034163;28;20254;-79
2021/04/20 11:23:08;;;;;;;22.63;8.32;;;17.30;99.90;;;;;;5034024;28;20195;-81
2021/04/20 11:25:48;;;;;;;4.13;3.05;;;17.60;99.90;;;;;;5033724;28;20528;-81
2021/04/20 11:28:41;;;;;;;60.45;10.15;;;17.80;99.90;;;;;;5033775;28;20234;-80
2021/04/20 11:31:18;;;;;;;7.45;4.82;;;17.70;99.90;;;;;;5033724;28;20175;-81
2021/04/20 11:33:46;;;;;;;11.30;7.00;;;18.00;99.90;;;;;;5033818;28;20235;-80
2021/04/20 11:36:19;;;;;;;12.48;5.78;;;18.30;99.90;;;;;;5033594;28;20524;-80
2021/04/20 11:38:51;;;;;;;11.48;4.78;;;18.10;99.90;;;;;;5033696;28;20624;-79
2021/04/20 11:41:20;;;;;;;10.13;6.10;;;18.30;99.90;;;;;;5033525;28;20774;-80
2021/04/20 11:43:55;;;;;;;10.77;7.40;;;18.50;99.90;;;;;;5033794;28;20156;-81
2021/04/20 11:46:22;;;;;;;4.50;3.42;;;18.90;99.90;;;;;;5033723;28;20635;-81
2021/04/20 11:48:51;;;;;;;5.22;3.25;;;19.10;99.90;;;;;;5037841;28;20172;-81
2021/04/20 11:51:16;;;;;;;7.03;4.78;;;19.50;99.90;;;;;;5044011;28;20160;-78
2021/04/20 11:53:47;;;;;;;9.40;3.08;;;19.60;99.90;;;;;;5039366;28;20171;-79
2021/04/20 11:56:13;;;;;;;14.52;4.38;;;19.10;99.90;;;;;;5053138;28;20178;-78
2021/04/20 11:58:45;;;;;;;6.47;3.97;;;19.00;99.90;;;;;;5056562;28;20228;-76
2021/04/20 12:01:17;;;;;;;13.18;6.70;;;19.30;99.90;;;;;;5056360;28;20200;-76
2021/04/20 12:03:54;;;;;;;9.90;5.30;;;19.70;99.90;;;;;;5049707;28;20205;-78
2021/04/20 12:06:21;;;;;;;6.10;5.53;;;19.40;99.90;;;;;;5048463;28;20188;-77
2021/04/20 12:08:53;;;;;;;5.93;4.43;;;19.40;99.90;;;;;;5043556;28;20214;-78
2021/04/20 12:11:20;;;;;;;17.60;4.90;;;19.30;99.90;;;;;;5033545;28;20247;-77
2021/04/20 12:13:49;;;;;;;5.97;4.57;;;19.30;99.90;;;;;;5033411;28;20249;-78
2021/04/20 12:16:16;;;;;;;4.07;3.63;;;19.50;99.90;;;;;;5033394;28;20180;-77
2021/04/20 12:18:47;;;;;;;12.27;3.47;;;19.30;99.90;;;;;;5014993;28;20177;-76
2021/04/20 12:21:39;;;;;;;8.93;3.13;;;18.90;99.90;;;;;;5023366;28;20195;-78
2021/04/20 12:24:09;;;;;;;3.97;3.58;;;19.00;99.90;;;;;;5025070;28;20192;-77
2021/04/20 12:26:36;;;;;;;3.88;3.42;;;19.10;99.90;;;;;;5031384;28;20206;-78
2021/04/20 12:29:11;;;;;;;14.10;4.43;;;18.90;99.90;;;;;;5012420;28;20172;-77
2021/04/20 12:31:37;;;;;;;6.43;3.53;;;18.70;99.90;;;;;;5025199;28;20254;-77
2021/04/20 12:34:04;;;;;;;11.75;2.95;;;18.70;99.90;;;;;;5019137;28;20177;-78
2021/04/20 12:36:45;;;;;;;19.08;4.03;;;18.40;99.90;;;;;;5011564;28;20729;-79
2021/04/20 12:39:22;;;;;;;5.25;3.15;;;18.30;99.90;;;;;;5029043;28;20566;-77
2021/04/20 12:41:50;;;;;;;28.17;5.43;;;18.30;99.90;;;;;;5020087;28;20203;-78
2021/04/20 12:44:21;;;;;;;4.57;2.55;;;18.60;99.90;;;;;;5032369;28;20159;-78
2021/04/20 12:46:47;;;;;;;3.05;2.83;;;18.70;99.90;;;;;;5031955;28;20188;-75
2021/04/20 12:51:40;;;;;;;15.88;5.55;;;18.10;99.90;;;;;;5032364;28;20278;-76
2021/04/20 12:54:18;;;;;;;5.38;3.63;;;18.00;99.90;;;;;;5032510;28;20188;-76
2021/04/20 12:56:44;;;;;;;4.82;3.78;;;17.90;99.90;;;;;;5031311;28;20226;-77
2021/04/20 12:59:24;;;;;;;5.30;3.33;;;18.00;99.90;;;;;;5032193;28;20164;-78
2021/04/20 13:01:51;;;;;;;8.27;4.82;;;18.30;99.90;;;;;;5032330;28;20243;-77
2021/04/20 13:04:29;;;;;;;12.88;4.95;;;18.50;99.90;;;;;;5032628;28;20514;-77
2021/04/20 13:06:58;;;;;;;3.72;3.42;;;18.70;99.90;;;;;;5032585;28;20192;-80
2021/04/20 13:09:30;;;;;;;11.60;4.43;;;19.10;99.90;;;;;;5031940;28;20522;-78
2021/04/20 13:11:58;;;;;;;6.05;3.97;;;19.10;99.90;;;;;;5032038;28;20164;-78
2021/04/20 13:14:24;;;;;;;6.43;4.07;;;19.10;99.90;;;;;;5047148;28;20627;-80
2021/04/20 13:16:55;;;;;;;6.72;3.83;;;19.20;99.90;;;;;;5032141;28;20190;-81
2021/04/20 13:19:29;;;;;;;7.32;5.13;;;19.20;99.90;;;;;;5031625;28;20191;-78